createdAt,value
2018-09-13T00:00:32.418Z,20.00
2018-09-13T00:03:07.452Z,19.80
2018-09-13T00:05:41.473Z,19.80
2018-09-13T00:08:15.754Z,19.60
2018-09-13T00:10:49.800Z,19.60
2018-09-13T00:13:24.576Z,19.70
2018-09-13T00:15:58.859Z,19.70
2018-09-13T00:18:33.669Z,19.70
2018-09-13T00:21:08.522Z,19.70
2018-09-13T00:23:43.018Z,19.70
2018-09-13T00:26:17.188Z,19.70
2018-09-13T00:28:52.374Z,19.60
2018-09-13T00:31:26.664Z,19.40
2018-09-13T00:34:00.730Z,19.30
2018-09-13T00:36:34.727Z,19.40
2018-09-13T00:39:08.870Z,19.50
2018-09-13T00:41:43.049Z,19.60
2018-09-13T00:44:17.174Z,19.60
2018-09-13T00:46:51.991Z,19.50
2018-09-13T00:49:26.111Z,19.40
2018-09-13T00:52:00.333Z,19.40
2018-09-13T00:54:34.491Z,19.30
2018-09-13T00:57:08.522Z,19.30
2018-09-13T00:59:43.584Z,19.30
2018-09-13T01:02:18.006Z,19.00
2018-09-13T01:04:53.137Z,19.00
2018-09-13T01:07:27.341Z,19.00
2018-09-13T01:10:01.502Z,19.00
2018-09-13T01:12:35.540Z,19.00
2018-09-13T01:15:09.674Z,19.00
2018-09-13T01:17:44.217Z,19.10
2018-09-13T01:20:18.446Z,19.10
2018-09-13T01:22:52.962Z,19.10
2018-09-13T01:25:27.127Z,19.00
2018-09-13T01:28:01.504Z,19.10
2018-09-13T01:30:35.810Z,19.00
2018-09-13T01:33:10.281Z,18.90
2018-09-13T01:35:44.432Z,18.90
2018-09-13T01:38:20.117Z,18.80
2018-09-13T01:40:54.527Z,18.70
2018-09-13T01:43:28.466Z,18.50
2018-09-13T01:46:02.571Z,18.40
2018-09-13T01:48:37.270Z,18.40
2018-09-13T01:51:11.314Z,18.40
2018-09-13T01:53:45.806Z,18.50
2018-09-13T01:56:20.030Z,18.40
2018-09-13T01:58:54.557Z,18.60
2018-09-13T02:01:28.597Z,18.70
2018-09-13T02:04:03.080Z,18.70
2018-09-13T02:06:37.102Z,18.60
2018-09-13T02:09:11.132Z,18.50
2018-09-13T02:11:45.422Z,18.50
2018-09-13T02:14:20.756Z,18.40
2018-09-13T02:16:54.902Z,18.40
2018-09-13T02:19:29.050Z,18.20
2018-09-13T02:22:03.267Z,18.20
2018-09-13T02:24:37.344Z,18.10
2018-09-13T02:27:12.361Z,18.00
2018-09-13T02:29:46.875Z,18.00
2018-09-13T02:32:20.994Z,18.00
2018-09-13T02:34:55.674Z,18.10
2018-09-13T02:37:29.679Z,18.10
2018-09-13T02:40:04.362Z,18.00
2018-09-13T02:42:39.287Z,17.90
2018-09-13T02:45:15.246Z,17.80
2018-09-13T02:47:50.487Z,17.80
2018-09-13T02:50:24.901Z,17.80
2018-09-13T02:53:26.034Z,17.80
2018-09-13T02:55:59.900Z,17.80
2018-09-13T02:58:33.896Z,17.70
2018-09-13T03:01:07.932Z,17.70
2018-09-13T03:03:42.150Z,17.70
2018-09-13T03:06:16.154Z,17.60
2018-09-13T03:08:50.269Z,17.60
2018-09-13T03:11:24.277Z,17.70
2018-09-13T03:13:58.266Z,17.70
2018-09-13T03:16:32.289Z,17.60
2018-09-13T03:19:06.419Z,17.60
2018-09-13T03:21:40.508Z,17.60
2018-09-13T03:24:14.627Z,17.60
2018-09-13T03:26:48.637Z,17.60
2018-09-13T03:29:22.654Z,17.60
2018-09-13T03:31:57.538Z,17.70
2018-09-13T03:34:31.412Z,17.70
2018-09-13T03:37:05.372Z,17.70
2018-09-13T03:39:39.368Z,17.90
2018-09-13T03:42:13.446Z,17.80
2018-09-13T03:44:47.517Z,17.70
2018-09-13T03:47:21.535Z,17.80
2018-09-13T03:49:55.570Z,17.70
2018-09-13T03:52:30.402Z,17.60
2018-09-13T03:55:05.120Z,17.70
2018-09-13T03:57:39.044Z,17.60
2018-09-13T04:00:13.094Z,17.80
2018-09-13T04:02:47.093Z,17.90
2018-09-13T04:05:21.185Z,17.70
2018-09-13T04:07:55.300Z,17.60
2018-09-13T04:10:29.389Z,17.60
2018-09-13T04:13:03.510Z,17.70
2018-09-13T04:15:37.545Z,17.50
2018-09-13T04:18:11.522Z,17.50
2018-09-13T04:20:45.533Z,17.50
2018-09-13T04:23:19.445Z,17.50
2018-09-13T04:25:53.515Z,17.60
2018-09-13T04:28:27.570Z,17.60
2018-09-13T04:31:01.695Z,17.50
2018-09-13T04:33:36.517Z,17.40
2018-09-13T04:36:11.232Z,17.40
2018-09-13T04:38:45.876Z,17.40
2018-09-13T04:41:19.805Z,17.40
2018-09-13T04:43:53.881Z,17.40
2018-09-13T04:46:27.996Z,17.50
2018-09-13T04:49:08.637Z,17.50
2018-09-13T04:51:42.508Z,17.40
2018-09-13T04:54:16.584Z,17.50
2018-09-13T04:56:51.332Z,18.00
2018-09-13T04:59:25.197Z,18.00
2018-09-13T05:01:59.246Z,18.00
2018-09-13T05:04:34.738Z,18.20
2018-09-13T05:07:09.679Z,18.40
2018-09-13T05:09:44.459Z,18.10
2018-09-13T05:12:18.405Z,18.00
2018-09-13T05:14:52.409Z,18.00
2018-09-13T05:17:26.514Z,18.00
2018-09-13T05:20:00.597Z,17.80
2018-09-13T05:22:34.716Z,17.70
2018-09-13T05:25:09.592Z,17.40
2018-09-13T05:27:43.548Z,17.40
2018-09-13T05:30:17.585Z,17.40
2018-09-13T05:32:51.667Z,17.50
2018-09-13T05:35:25.733Z,17.60
2018-09-13T05:37:59.577Z,17.60
2018-09-13T05:40:33.602Z,17.60
2018-09-13T05:43:07.642Z,17.50
2018-09-13T05:45:42.364Z,17.20
2018-09-13T05:48:16.293Z,17.20
2018-09-13T05:50:50.289Z,17.30
2018-09-13T05:53:24.212Z,17.30
2018-09-13T05:55:58.186Z,17.40
2018-09-13T05:58:32.294Z,17.50
2018-09-13T06:01:06.418Z,17.50
2018-09-13T06:03:40.529Z,17.70
2018-09-13T06:06:14.609Z,17.70
2018-09-13T06:08:48.489Z,17.40
2018-09-13T06:11:22.562Z,17.40
2018-09-13T06:13:56.560Z,17.50
2018-09-13T06:16:30.621Z,17.60
2018-09-13T06:19:04.694Z,17.60
2018-09-13T06:21:38.733Z,17.80
2018-09-13T06:24:12.796Z,17.70
2018-09-13T06:26:47.607Z,17.60
2018-09-13T06:29:22.370Z,17.60
2018-09-13T06:31:56.528Z,17.60
2018-09-13T06:34:30.608Z,17.50
2018-09-13T06:37:04.726Z,17.50
2018-09-13T06:39:39.568Z,18.00
2018-09-13T06:42:13.653Z,17.90
2018-09-13T06:44:47.738Z,18.10
2018-09-13T06:47:21.750Z,18.20
2018-09-13T06:49:55.867Z,18.20
2018-09-13T06:52:30.791Z,18.10
2018-09-13T06:55:04.910Z,18.10
2018-09-13T06:57:38.819Z,18.50
2018-09-13T07:00:12.901Z,18.30
2018-09-13T07:02:46.922Z,18.60
2018-09-13T07:05:38.332Z,18.80
2018-09-13T07:08:12.394Z,18.70
2018-09-13T07:10:46.482Z,18.80
2018-09-13T07:13:20.497Z,19.10
2018-09-13T07:15:54.580Z,19.00
2018-09-13T07:18:28.618Z,18.90
2018-09-13T07:21:02.710Z,18.80
2018-09-13T07:23:36.907Z,18.90
2018-09-13T07:26:11.565Z,19.10
2018-09-13T07:28:46.403Z,19.10
2018-09-13T07:31:20.528Z,19.00
2018-09-13T07:33:54.758Z,19.10
2018-09-13T07:36:28.871Z,19.30
2018-09-13T07:39:03.065Z,19.40
2018-09-13T07:41:37.034Z,19.40
2018-09-13T07:44:11.146Z,19.60
2018-09-13T07:46:45.997Z,19.90
2018-09-13T07:49:21.739Z,19.90
2018-09-13T07:51:56.383Z,19.50
2018-09-13T07:54:30.317Z,19.50
2018-09-13T07:57:04.449Z,19.30
2018-09-13T07:59:39.630Z,19.30
2018-09-13T08:02:14.047Z,19.30
2018-09-13T08:04:48.455Z,19.30
2018-09-13T08:07:26.469Z,19.40
2018-09-13T08:10:00.881Z,19.50
2018-09-13T08:12:35.002Z,19.60
2018-09-13T08:15:09.113Z,19.70
2018-09-13T08:17:43.350Z,19.90
2018-09-13T08:20:18.109Z,20.20
2018-09-13T08:22:52.281Z,20.20
2018-09-13T08:25:26.690Z,20.30
2018-09-13T08:28:01.111Z,20.60
2018-09-13T08:30:35.158Z,20.80
2018-09-13T08:33:09.485Z,20.80
2018-09-13T08:35:44.424Z,20.80
2018-09-13T08:38:18.779Z,20.70
2018-09-13T08:40:53.221Z,20.80
2018-09-13T08:43:27.454Z,21.50
2018-09-13T08:46:01.418Z,21.40
2018-09-13T08:48:35.867Z,21.20
2018-09-13T08:51:10.532Z,21.50
2018-09-13T08:53:45.009Z,21.50
2018-09-13T08:56:19.359Z,21.60
2018-09-13T08:58:53.941Z,21.70
2018-09-13T09:01:28.118Z,21.40
2018-09-13T09:04:03.262Z,21.20
2018-09-13T09:06:37.429Z,21.20
2018-09-13T09:09:11.770Z,21.10
2018-09-13T09:11:45.941Z,21.20
2018-09-13T09:14:20.118Z,21.40
2018-09-13T09:16:54.350Z,21.40
2018-09-13T09:19:28.513Z,21.60
2018-09-13T09:22:02.685Z,21.90
2018-09-13T09:24:36.989Z,21.80
2018-09-13T09:27:11.209Z,22.20
2018-09-13T09:29:45.766Z,22.30
2018-09-13T09:32:20.046Z,22.20
2018-09-13T09:34:54.356Z,22.10
2018-09-13T09:37:28.294Z,22.00
2018-09-13T09:40:02.847Z,21.90
2018-09-13T09:42:37.013Z,21.90
2018-09-13T09:45:11.206Z,22.10
2018-09-13T09:47:45.309Z,22.00
2018-09-13T09:50:19.461Z,21.90
2018-09-13T09:52:54.397Z,21.70
2018-09-13T09:55:28.718Z,21.70
2018-09-13T09:58:03.905Z,21.70
2018-09-13T10:00:38.841Z,22.00
2018-09-13T10:03:13.353Z,22.00
2018-09-13T10:05:48.592Z,22.30
2018-09-13T10:08:22.861Z,22.20
2018-09-13T10:10:57.190Z,22.20
2018-09-13T10:13:31.491Z,22.30
2018-09-13T10:16:05.588Z,22.50
2018-09-13T10:18:39.801Z,22.50
2018-09-13T10:21:13.998Z,22.50
2018-09-13T10:23:48.118Z,22.60
2018-09-13T10:26:22.847Z,23.10
2018-09-13T10:28:57.974Z,23.10
2018-09-13T10:31:32.102Z,23.50
2018-09-13T10:34:06.496Z,23.00
2018-09-13T10:36:40.976Z,23.50
2018-09-13T10:39:16.500Z,23.50
2018-09-13T10:41:51.314Z,23.10
2018-09-13T10:44:25.407Z,23.00
2018-09-13T10:46:59.373Z,23.20
2018-09-13T10:49:33.501Z,23.20
2018-09-13T10:52:07.899Z,23.80
2018-09-13T10:54:42.301Z,23.80
2018-09-13T10:57:17.174Z,24.30
2018-09-13T10:59:51.477Z,24.30
2018-09-13T11:02:25.837Z,23.40
2018-09-13T11:04:59.792Z,23.20
2018-09-13T11:07:33.813Z,23.30
2018-09-13T11:10:08.041Z,23.70
2018-09-13T11:12:42.169Z,23.50
2018-09-13T11:15:17.056Z,24.10
2018-09-13T11:17:51.649Z,24.00
2018-09-13T11:20:26.166Z,24.50
2018-09-13T11:23:00.638Z,24.50
2018-09-13T11:25:34.671Z,24.50
2018-09-13T11:28:08.674Z,25.10
2018-09-13T11:30:42.743Z,24.90
2018-09-13T11:33:18.858Z,24.80
2018-09-13T11:35:52.799Z,24.50
2018-09-13T11:38:26.893Z,24.40
2018-09-13T11:41:01.086Z,24.00
2018-09-13T11:43:36.185Z,24.30
2018-09-13T11:46:10.234Z,24.20
2018-09-13T11:48:45.018Z,24.10
2018-09-13T11:51:20.141Z,24.10
2018-09-13T11:57:15.017Z,24.00
2018-09-13T11:59:49.086Z,24.20
2018-09-13T12:02:23.232Z,24.20
2018-09-13T12:04:57.312Z,24.30
2018-09-13T12:07:31.373Z,24.50
2018-09-13T12:10:05.625Z,24.70
2018-09-13T12:12:40.477Z,24.30
2018-09-13T12:15:14.546Z,24.30
2018-09-13T12:17:48.665Z,25.00
2018-09-13T12:20:39.819Z,25.20
2018-09-13T12:23:14.574Z,25.10
2018-09-13T12:25:49.510Z,25.10
2018-09-13T12:28:24.650Z,24.70
2018-09-13T12:30:58.635Z,24.70
2018-09-13T12:33:35.590Z,25.10
2018-09-13T12:36:09.485Z,25.30
2018-09-13T12:38:43.591Z,25.10
2018-09-13T12:41:17.669Z,24.70
2018-09-13T12:43:51.682Z,24.20
2018-09-13T12:46:25.616Z,24.10
2018-09-13T12:49:00.390Z,24.40
2018-09-13T12:51:35.266Z,24.40
2018-09-13T12:54:09.350Z,23.90
2018-09-13T12:56:43.608Z,24.30
2018-09-13T12:59:17.681Z,24.50
2018-09-13T13:01:51.829Z,24.70
2018-09-13T13:04:25.841Z,24.90
2018-09-13T13:06:59.951Z,24.70
2018-09-13T13:09:34.059Z,24.40
2018-09-13T13:12:08.289Z,24.30
2018-09-13T13:14:43.217Z,24.30
2018-09-13T13:17:17.945Z,24.70
2018-09-13T13:19:52.056Z,24.70
2018-09-13T13:22:26.174Z,24.70
2018-09-13T13:25:00.394Z,24.90
2018-09-13T13:27:34.439Z,25.00
2018-09-13T13:30:08.361Z,25.20
2018-09-13T13:32:42.421Z,24.90
2018-09-13T13:35:16.501Z,24.60
2018-09-13T13:37:50.642Z,24.70
2018-09-13T13:40:24.829Z,24.10
2018-09-13T13:42:58.914Z,24.40
2018-09-13T13:45:33.088Z,24.30
2018-09-13T13:48:07.221Z,24.40
2018-09-13T13:50:41.410Z,24.50
2018-09-13T13:53:15.498Z,24.80
2018-09-13T13:55:49.667Z,24.40
2018-09-13T13:58:23.754Z,24.40
2018-09-13T14:00:57.873Z,24.00
2018-09-13T14:03:31.880Z,23.80
2018-09-13T14:06:05.914Z,24.00
2018-09-13T14:08:40.019Z,23.70
2018-09-13T14:11:14.073Z,23.80
2018-09-13T14:13:48.218Z,23.90
2018-09-13T14:16:22.963Z,23.80
2018-09-13T14:18:57.199Z,23.70
2018-09-13T14:21:31.187Z,23.70
2018-09-13T14:24:06.034Z,23.20
2018-09-13T14:26:40.131Z,23.20
2018-09-13T14:29:14.214Z,23.50
2018-09-13T14:31:48.355Z,23.70
2018-09-13T14:34:22.449Z,23.80
2018-09-13T14:36:56.589Z,24.00
2018-09-13T14:39:30.722Z,24.00
2018-09-13T14:42:04.802Z,23.70
2018-09-13T14:44:38.904Z,23.40
2018-09-13T14:47:13.002Z,23.30
2018-09-13T14:49:46.873Z,23.00
2018-09-13T14:52:20.898Z,23.10
2018-09-13T14:54:55.010Z,23.20
2018-09-13T14:57:29.042Z,23.30
2018-09-13T15:00:03.104Z,23.30
2018-09-13T15:02:37.174Z,23.40
2018-09-13T15:05:11.274Z,23.00
2018-09-13T15:07:45.363Z,22.70
2018-09-13T15:10:19.366Z,22.80
2018-09-13T15:12:53.475Z,22.80
2018-09-13T15:15:27.430Z,23.20
2018-09-13T15:18:01.445Z,23.00
2018-09-13T15:20:35.448Z,23.30
2018-09-13T15:23:09.545Z,23.60
2018-09-13T15:25:43.589Z,23.60
2018-09-13T15:28:17.581Z,23.80
2018-09-13T15:30:51.647Z,23.30
2018-09-13T15:33:25.641Z,22.90
2018-09-13T15:35:59.750Z,22.70
2018-09-13T15:38:34.369Z,22.70
2018-09-13T15:41:09.001Z,22.80
2018-09-13T15:43:42.981Z,22.80
2018-09-13T15:46:17.755Z,23.40
2018-09-13T15:48:51.868Z,23.40
2018-09-13T15:51:25.973Z,22.80
2018-09-13T15:54:00.074Z,22.70
2018-09-13T15:56:38.497Z,22.80
2018-09-13T15:59:12.442Z,22.60
2018-09-13T16:01:46.622Z,22.50
2018-09-13T16:04:21.629Z,22.60
2018-09-13T16:06:57.722Z,23.10
2018-09-13T16:09:39.773Z,23.00
2018-09-13T16:12:14.822Z,23.00
2018-09-13T16:14:48.900Z,22.80
2018-09-13T16:17:23.065Z,22.70
2018-09-13T16:19:57.100Z,23.00
2018-09-13T16:22:31.082Z,22.90
2018-09-13T16:25:05.836Z,22.20
2018-09-13T16:27:39.950Z,22.20
2018-09-13T16:30:14.038Z,22.20
2018-09-13T16:32:48.054Z,22.00
2018-09-13T16:35:22.378Z,22.00
2018-09-13T16:37:56.228Z,22.40
2018-09-13T16:40:30.205Z,22.30
2018-09-13T16:43:04.261Z,22.10
2018-09-13T16:45:38.676Z,22.00
2018-09-13T16:48:13.736Z,21.90
2018-09-13T16:50:48.151Z,21.90
2018-09-13T16:53:22.506Z,21.80
2018-09-13T16:55:56.883Z,21.80
2018-09-13T16:58:30.805Z,21.70
2018-09-13T17:01:05.682Z,21.40
2018-09-13T17:03:39.985Z,21.40
2018-09-13T17:06:14.025Z,21.30
2018-09-13T17:08:48.035Z,21.30
2018-09-13T17:11:23.058Z,21.30
2018-09-13T17:13:56.971Z,21.30
2018-09-13T17:16:31.054Z,21.00
2018-09-13T17:19:05.641Z,21.20
2018-09-13T17:21:39.571Z,21.10
2018-09-13T17:24:14.479Z,21.20
2018-09-13T17:26:49.738Z,21.20
2018-09-13T17:29:24.855Z,21.30
2018-09-13T17:31:58.998Z,21.20
2018-09-13T17:34:33.130Z,21.10
2018-09-13T17:37:07.388Z,20.90
2018-09-13T17:39:41.769Z,20.80
2018-09-13T17:42:16.619Z,20.50
2018-09-13T17:44:50.750Z,20.50
2018-09-13T17:47:24.909Z,20.50
2018-09-13T17:49:59.719Z,20.60
2018-09-13T17:52:33.854Z,20.60
2018-09-13T17:55:08.725Z,20.60
2018-09-13T17:57:42.979Z,20.60
2018-09-13T18:00:16.873Z,20.60
2018-09-13T18:02:52.574Z,20.60
2018-09-13T18:19:35.214Z,19.80
2018-09-13T18:22:09.265Z,19.70
2018-09-13T18:24:43.502Z,19.90
2018-09-13T18:27:17.619Z,19.80
2018-09-13T18:29:53.481Z,20.00
2018-09-13T18:32:35.300Z,20.00
2018-09-13T18:35:09.465Z,20.20
2018-09-13T18:37:44.470Z,20.20
2018-09-13T18:40:19.266Z,20.00
2018-09-13T18:45:59.426Z,20.00
2018-09-13T18:48:33.369Z,20.30
2018-09-13T18:51:08.991Z,20.30
2018-09-13T18:53:48.135Z,20.10
2018-09-13T18:56:22.312Z,20.20
2018-09-13T18:58:56.351Z,20.00
2018-09-13T19:01:31.579Z,20.40
2018-09-13T19:04:05.691Z,20.30
2018-09-13T19:06:39.911Z,20.00
2018-09-13T19:09:15.065Z,20.20
2018-09-13T19:11:49.866Z,20.40
2018-09-13T19:14:23.853Z,20.30
2018-09-13T19:16:58.009Z,20.20
2018-09-13T19:19:32.152Z,20.10
2018-09-13T19:22:06.320Z,20.10
2018-09-13T19:24:40.490Z,19.80
2018-09-13T19:27:14.497Z,19.50
2018-09-13T19:29:48.461Z,19.50
2018-09-13T19:32:22.582Z,19.50
2018-09-13T19:34:56.523Z,19.60
2018-09-13T19:37:30.601Z,19.70
2018-09-13T19:40:04.818Z,19.50
2018-09-13T19:42:38.937Z,19.20
2018-09-13T19:45:13.045Z,19.20
2018-09-13T19:47:47.823Z,19.20
2018-09-13T19:50:23.352Z,19.00
2018-09-13T19:52:57.546Z,19.10
2018-09-13T19:55:31.593Z,19.10
2018-09-13T19:58:05.707Z,19.30
2018-09-13T20:00:39.957Z,19.10
2018-09-13T20:03:14.127Z,19.10
2018-09-13T20:05:48.061Z,19.30
2018-09-13T20:08:22.037Z,19.20
2018-09-13T20:10:56.143Z,19.50
2018-09-13T20:13:30.279Z,19.50
2018-09-13T20:16:05.011Z,19.40
2018-09-13T20:18:39.194Z,19.40
2018-09-13T20:21:13.308Z,19.40
2018-09-13T20:23:47.442Z,19.50
2018-09-13T20:26:21.463Z,19.70
2018-09-13T20:28:55.643Z,19.40
2018-09-13T20:31:29.705Z,19.50
2018-09-13T20:34:04.490Z,19.50
2018-09-13T20:36:39.333Z,19.40
2018-09-13T20:39:13.577Z,19.40
2018-09-13T20:41:47.469Z,19.50
2018-09-13T20:44:21.446Z,19.50
2018-09-13T20:46:55.453Z,19.40
2018-09-13T20:49:29.486Z,19.30
2018-09-13T20:52:03.627Z,19.20
2018-09-13T20:54:37.747Z,19.30
2018-09-13T20:57:11.773Z,19.40
2018-09-13T20:59:45.987Z,19.40
2018-09-13T21:02:20.071Z,19.30
2018-09-13T21:04:53.984Z,19.30
2018-09-13T21:07:28.078Z,19.20
2018-09-13T21:10:02.817Z,19.30
2018-09-13T21:12:37.980Z,19.30
2018-09-13T21:15:13.104Z,19.20
2018-09-13T21:17:47.218Z,19.10
2018-09-13T21:20:21.917Z,18.90
2018-09-13T21:22:56.017Z,18.90
2018-09-13T21:25:30.049Z,18.90
2018-09-13T21:28:04.029Z,18.90
2018-09-13T21:30:38.169Z,18.80
2018-09-13T21:33:12.294Z,18.60
2018-09-13T21:35:58.525Z,18.70
2018-09-13T21:38:32.479Z,18.70
2018-09-13T21:41:06.549Z,18.70
2018-09-13T21:43:40.499Z,18.60
2018-09-13T21:46:14.617Z,18.60
2018-09-13T21:48:48.730Z,18.60
2018-09-13T21:51:22.889Z,18.50
2018-09-13T21:53:57.211Z,18.60
2018-09-13T21:56:31.322Z,18.70
2018-09-13T21:59:05.429Z,18.60
2018-09-13T22:01:39.454Z,18.70
2018-09-13T22:04:13.430Z,18.60
2018-09-13T22:06:47.714Z,18.60
2018-09-13T22:09:22.392Z,18.20
2018-09-13T22:11:57.385Z,18.20
2018-09-13T22:14:31.346Z,18.20
2018-09-13T22:17:05.563Z,18.10
2018-09-13T22:19:40.360Z,18.10
2018-09-13T22:22:14.499Z,18.00
2018-09-13T22:24:48.714Z,18.10
2018-09-13T22:27:22.842Z,18.00
2018-09-13T22:29:56.908Z,18.10
2018-09-13T22:32:31.056Z,18.10
2018-09-13T22:35:05.212Z,18.20
2018-09-13T22:37:39.507Z,18.00
2018-09-13T22:40:13.654Z,18.20
2018-09-13T22:42:47.769Z,18.10
2018-09-13T22:45:21.922Z,18.20
2018-09-13T22:47:55.901Z,18.30
2018-09-13T22:50:29.966Z,18.50
2018-09-13T22:53:03.993Z,18.60
2018-09-13T22:55:38.050Z,18.30
2018-09-13T22:58:12.110Z,18.00
2018-09-13T23:00:46.109Z,18.10
2018-09-13T23:03:20.114Z,18.10
2018-09-13T23:05:54.111Z,17.90
2018-09-13T23:08:28.238Z,17.70
2018-09-13T23:11:02.261Z,17.80
2018-09-13T23:13:36.361Z,17.90
2018-09-13T23:16:10.378Z,17.90
2018-09-13T23:18:45.250Z,17.70
2018-09-13T23:21:19.367Z,17.70
2018-09-13T23:23:54.206Z,17.50
2018-09-13T23:26:28.225Z,17.50
2018-09-13T23:29:02.158Z,17.40
2018-09-13T23:31:36.238Z,17.40
2018-09-13T23:34:10.357Z,17.50
2018-09-13T23:36:44.504Z,17.60
2018-09-13T23:39:18.733Z,17.60
2018-09-13T23:41:52.706Z,17.70
2018-09-13T23:44:26.818Z,17.70
2018-09-13T23:47:00.943Z,17.60
2018-09-13T23:49:35.057Z,17.60
2018-09-13T23:52:09.780Z,17.50
2018-09-13T23:54:43.894Z,17.50
2018-09-13T23:57:17.993Z,17.40
2018-09-13T23:59:52.133Z,17.50
